createdAt,value
2022-08-26T00:01:55.842Z,94418.06
2022-08-26T00:04:25.623Z,94414.91
2022-08-26T00:06:54.758Z,94406.72
2022-08-26T00:09:24.802Z,94414.75
2022-08-26T00:11:53.997Z,94401.53
2022-08-26T00:14:22.881Z,94407.25
2022-08-26T00:16:51.603Z,94409.66
2022-08-26T00:19:21.322Z,94405.94
2022-08-26T00:21:49.606Z,94406.34
2022-08-26T00:24:18.864Z,94405.94
2022-08-26T00:26:45.801Z,94406.56
2022-08-26T00:29:13.606Z,94405.56
2022-08-26T00:31:42.040Z,94416.41
2022-08-26T00:34:11.221Z,94415.84
2022-08-26T00:36:40.779Z,94414.25
2022-08-26T00:39:08.412Z,94406.28
2022-08-26T00:41:38.485Z,94406.72
2022-08-26T00:44:06.397Z,94410.56
2022-08-26T00:46:38.594Z,94407.31
2022-08-26T00:49:25.984Z,94407.75
2022-08-26T00:51:59.106Z,94408.16
2022-08-26T00:54:31.150Z,94400.19
2022-08-26T00:57:16.349Z,94401.22
2022-08-26T00:59:53.214Z,94405.72
2022-08-26T01:02:21.054Z,94412.00
2022-08-26T01:04:55.646Z,94408.16
2022-08-26T01:07:30.325Z,94412.22
2022-08-26T01:10:01.286Z,94393.88
2022-08-26T01:12:32.476Z,94416.50
2022-08-26T01:15:00.412Z,94407.75
2022-08-26T01:17:27.209Z,94406.91
2022-08-26T01:20:28.214Z,94414.47
2022-08-26T01:23:08.698Z,94415.09
2022-08-26T01:25:51.112Z,94420.00
2022-08-26T01:28:30.429Z,94408.34
2022-08-26T01:30:59.645Z,94416.50
2022-08-26T01:33:41.987Z,94408.38
2022-08-26T01:36:10.159Z,94409.56
2022-08-26T01:38:36.912Z,94402.25
2022-08-26T01:41:04.498Z,94401.84
2022-08-26T01:43:51.387Z,94406.09
2022-08-26T01:46:20.621Z,94412.03
2022-08-26T01:48:49.682Z,94408.56
2022-08-26T01:51:22.872Z,94411.41
2022-08-26T01:53:49.944Z,94412.59
2022-08-26T01:56:17.512Z,94420.13
2022-08-26T01:58:58.929Z,94424.81
2022-08-26T02:01:29.062Z,94414.84
2022-08-26T02:04:10.909Z,94415.03
2022-08-26T02:06:41.162Z,94404.03
2022-08-26T02:09:08.583Z,94399.53
2022-08-26T02:11:36.838Z,94420.13
2022-08-26T02:14:16.211Z,94412.16
2022-08-26T02:16:47.533Z,94411.13
2022-08-26T02:19:19.663Z,94421.75
2022-08-26T02:21:51.183Z,94414.44
2022-08-26T02:24:27.586Z,94412.22
2022-08-26T02:26:57.110Z,94411.22
2022-08-26T02:29:38.473Z,94412.59
2022-08-26T02:32:08.629Z,94412.38
2022-08-26T02:34:36.167Z,94420.53
2022-08-26T02:37:08.276Z,94423.59
2022-08-26T02:39:40.705Z,94416.88
2022-08-26T02:42:07.909Z,94412.19
2022-08-26T02:44:34.815Z,94415.84
2022-08-26T02:47:02.005Z,94412.00
2022-08-26T02:49:30.518Z,94410.34
2022-08-26T02:51:58.013Z,94418.09
2022-08-26T02:54:28.965Z,94420.34
2022-08-26T02:56:56.404Z,94415.00
2022-08-26T02:59:24.673Z,94418.22
2022-08-26T03:01:52.495Z,94415.94
2022-08-26T03:04:25.695Z,94411.63
2022-08-26T03:06:53.552Z,94406.34
2022-08-26T03:09:23.637Z,94399.44
2022-08-26T03:11:52.035Z,94412.06
2022-08-26T03:14:18.912Z,94404.31
2022-08-26T03:16:48.622Z,94397.41
2022-08-26T03:19:15.556Z,94379.63
2022-08-26T03:21:45.225Z,94406.97
2022-08-26T03:24:15.248Z,94414.53
2022-08-26T03:26:52.062Z,94391.69
2022-08-26T03:29:40.052Z,94401.34
2022-08-26T03:32:07.666Z,94403.97
2022-08-26T03:34:35.467Z,94400.25
2022-08-26T03:37:02.448Z,94410.06
2022-08-26T03:39:31.418Z,94399.81
2022-08-26T03:41:59.027Z,94403.94
2022-08-26T03:44:26.802Z,94389.47
2022-08-26T03:46:55.003Z,94400.19
2022-08-26T03:49:22.542Z,94396.69
2022-08-26T03:51:50.394Z,94395.25
2022-08-26T03:54:17.898Z,94395.25
2022-08-26T03:56:46.626Z,94397.72
2022-08-26T03:59:13.951Z,94398.28
2022-08-26T04:01:41.025Z,94393.56
2022-08-26T04:04:09.358Z,94399.25
2022-08-26T04:06:44.961Z,94390.69
2022-08-26T04:09:20.169Z,94397.00
2022-08-26T04:11:50.504Z,94396.19
2022-08-26T04:14:22.557Z,94392.72
2022-08-26T04:16:50.941Z,94388.88
2022-08-26T04:19:19.339Z,94392.97
2022-08-26T04:21:48.118Z,94393.56
2022-08-26T04:24:17.649Z,94391.78
2022-08-26T04:26:44.793Z,94390.94
2022-08-26T04:29:25.462Z,94391.56
2022-08-26T04:31:57.364Z,94385.81
2022-08-26T04:34:27.237Z,94387.41
2022-08-26T04:36:56.159Z,94388.03
2022-08-26T04:39:22.968Z,94373.38
2022-08-26T04:41:50.757Z,94380.28
2022-08-26T04:44:18.730Z,94389.25
2022-08-26T04:46:45.532Z,94390.25
2022-08-26T04:49:13.542Z,94391.44
2022-08-26T04:51:40.635Z,94380.81
2022-08-26T04:54:08.730Z,94384.50
2022-08-26T04:56:39.177Z,94382.47
2022-08-26T04:59:17.160Z,94390.38
2022-08-26T05:01:51.368Z,94394.44
2022-08-26T05:04:20.274Z,94393.81
2022-08-26T05:06:48.451Z,94387.28
2022-08-26T05:09:16.554Z,94394.19
2022-08-26T05:11:43.403Z,94396.22
2022-08-26T05:14:10.290Z,94390.91
2022-08-26T05:16:40.372Z,94395.31
2022-08-26T05:19:08.548Z,94390.88
2022-08-26T05:21:36.690Z,94398.25
2022-08-26T05:24:04.738Z,94398.66
2022-08-26T05:26:32.472Z,94402.91
2022-08-26T05:28:59.442Z,94406.00
2022-08-26T05:31:31.519Z,94400.75
2022-08-26T05:34:03.588Z,94402.03
2022-08-26T05:36:33.561Z,94415.25
2022-08-26T05:39:03.976Z,94408.13
2022-08-26T05:41:36.777Z,94412.00
2022-08-26T05:44:09.459Z,94418.72
2022-08-26T05:46:37.469Z,94409.16
2022-08-26T05:49:12.808Z,94411.03
2022-08-26T05:51:42.111Z,94414.66
2022-08-26T05:54:10.379Z,94409.00
2022-08-26T05:56:39.150Z,94404.94
2022-08-26T05:59:14.445Z,94406.81
2022-08-26T06:01:43.629Z,94414.38
2022-08-26T06:04:11.525Z,94418.44
2022-08-26T06:06:41.763Z,94417.28
2022-08-26T06:09:10.975Z,94404.44
2022-08-26T06:11:38.994Z,94408.56
2022-08-26T06:14:08.027Z,94411.22
2022-08-26T06:16:40.946Z,94411.28
2022-08-26T06:19:10.708Z,94403.16
2022-08-26T06:21:41.559Z,94414.59
2022-08-26T06:24:32.813Z,94418.91
2022-08-26T06:27:05.728Z,94421.13
2022-08-26T06:29:36.059Z,94422.78
2022-08-26T06:32:04.767Z,94422.81
2022-08-26T06:34:31.675Z,94406.53
2022-08-26T06:37:02.786Z,94418.34
2022-08-26T06:39:31.470Z,94422.81
2022-08-26T06:42:00.142Z,94422.84
2022-08-26T06:44:27.544Z,94417.56
2022-08-26T06:46:54.845Z,94417.09
2022-08-26T06:49:25.830Z,94412.19
2022-08-26T06:51:54.339Z,94419.69
2022-08-26T06:54:21.387Z,94418.81
2022-08-26T06:56:48.188Z,94422.63
2022-08-26T06:59:15.453Z,94422.13
2022-08-26T07:01:44.987Z,94419.00
2022-08-26T07:04:15.684Z,94426.88
2022-08-26T07:06:49.114Z,94419.00
2022-08-26T07:09:16.952Z,94410.94
2022-08-26T07:11:45.007Z,94413.63
2022-08-26T07:14:12.707Z,94419.44
2022-08-26T07:16:41.317Z,94418.47
2022-08-26T07:19:10.863Z,94414.81
2022-08-26T07:21:41.645Z,94418.06
2022-08-26T07:24:10.995Z,94427.16
2022-08-26T07:26:39.282Z,94422.38
2022-08-26T07:29:11.577Z,94415.16
2022-08-26T07:31:39.482Z,94406.41
2022-08-26T07:34:10.663Z,94409.38
2022-08-26T07:36:37.457Z,94402.19
2022-08-26T07:39:04.341Z,94410.00
2022-08-26T07:41:31.298Z,94407.47
2022-08-26T07:43:58.794Z,94408.41
2022-08-26T07:46:27.059Z,94411.75
2022-08-26T07:48:57.593Z,94414.97
2022-08-26T07:51:25.054Z,94404.88
2022-08-26T07:53:53.074Z,94418.28
2022-08-26T07:56:21.849Z,94408.09
2022-08-26T07:58:51.439Z,94403.13
2022-08-26T08:01:23.778Z,94407.53
2022-08-26T08:03:52.182Z,94407.34
2022-08-26T08:06:27.302Z,94406.19
2022-08-26T08:08:55.883Z,94413.25
2022-08-26T08:11:24.140Z,94401.03
2022-08-26T08:13:56.036Z,94414.25
2022-08-26T08:16:32.109Z,94411.75
2022-08-26T08:19:00.253Z,94403.53
2022-08-26T08:21:28.983Z,94405.94
2022-08-26T08:23:57.445Z,94397.88
2022-08-26T08:26:26.189Z,94399.72
2022-08-26T08:28:57.616Z,94401.88
2022-08-26T08:31:56.997Z,94390.47
2022-08-26T08:34:19.326Z,94389.72
2022-08-26T08:36:48.992Z,94393.84
2022-08-26T08:39:17.493Z,94385.84
2022-08-26T08:42:27.907Z,94394.06
2022-08-26T08:45:00.127Z,94383.34
2022-08-26T08:47:36.602Z,94389.28
2022-08-26T08:50:21.314Z,94391.47
2022-08-26T08:53:20.502Z,94394.19
2022-08-26T08:56:11.251Z,94387.75
2022-08-26T08:59:26.754Z,94388.53
2022-08-26T09:02:20.956Z,94392.53
2022-08-26T09:05:15.233Z,94393.31
2022-08-26T09:08:19.870Z,94384.69
2022-08-26T09:10:59.688Z,94389.28
2022-08-26T09:13:27.632Z,94390.34
2022-08-26T09:16:11.250Z,94394.91
2022-08-26T09:19:02.069Z,94388.75
2022-08-26T09:21:31.491Z,94395.69
2022-08-26T09:23:58.468Z,94380.06
2022-08-26T09:26:39.279Z,94377.31
2022-08-26T09:29:15.613Z,94380.50
2022-08-26T09:31:42.686Z,94381.84
2022-08-26T09:34:27.082Z,94379.25
2022-08-26T09:36:54.912Z,94365.47
2022-08-26T09:39:26.013Z,94376.66
2022-08-26T09:42:05.371Z,94362.59
2022-08-26T09:44:33.066Z,94358.75
2022-08-26T09:47:05.475Z,94368.91
2022-08-26T09:49:37.246Z,94372.19
2022-08-26T09:52:08.221Z,94363.44
2022-08-26T09:54:35.955Z,94362.81
2022-08-26T09:57:26.390Z,94355.25
2022-08-26T09:59:54.097Z,94351.25
2022-08-26T10:02:33.228Z,94344.72
2022-08-26T10:05:09.531Z,94342.13
2022-08-26T10:07:41.500Z,94345.06
2022-08-26T10:10:15.129Z,94338.69
2022-08-26T10:12:55.313Z,94332.34
2022-08-26T10:15:25.412Z,94328.41
2022-08-26T10:18:16.627Z,94326.63
2022-08-26T10:21:15.096Z,94327.03
2022-08-26T10:23:56.910Z,94327.34
2022-08-26T10:26:57.641Z,94315.50
2022-08-26T10:29:39.631Z,94323.97
2022-08-26T10:32:16.865Z,94314.06
2022-08-26T10:34:44.086Z,94313.88
2022-08-26T10:37:20.588Z,94315.59
2022-08-26T10:40:04.180Z,94306.72
2022-08-26T10:42:37.786Z,94305.22
2022-08-26T10:45:15.593Z,94310.50
2022-08-26T10:47:54.936Z,94309.38
2022-08-26T10:50:28.421Z,94303.44
2022-08-26T10:53:19.262Z,94305.47
2022-08-26T10:56:15.825Z,94302.88
2022-08-26T10:58:59.625Z,94300.88
2022-08-26T11:01:47.079Z,94305.88
2022-08-26T11:04:45.645Z,94294.63
2022-08-26T11:07:40.543Z,94296.16
2022-08-26T11:10:22.668Z,94293.84
2022-08-26T11:13:04.981Z,94290.63
2022-08-26T11:15:31.721Z,94291.03
2022-08-26T11:18:04.489Z,94292.41
2022-08-26T11:20:46.251Z,94295.75
2022-08-26T11:23:14.456Z,94290.78
2022-08-26T11:25:57.159Z,94296.72
2022-08-26T11:28:50.335Z,94293.22
2022-08-26T11:31:26.158Z,94290.00
2022-08-26T11:34:02.546Z,94282.53
2022-08-26T11:36:47.863Z,94279.53
2022-08-26T11:39:30.717Z,94284.94
2022-08-26T11:42:32.072Z,94279.84
2022-08-26T11:45:01.384Z,94278.44
2022-08-26T11:47:32.249Z,94256.31
2022-08-26T11:50:18.157Z,94268.84
2022-08-26T11:53:06.100Z,94277.19
2022-08-26T11:55:36.392Z,94278.66
2022-08-26T11:58:05.849Z,94281.66
2022-08-26T12:00:37.759Z,94288.63
2022-08-26T12:03:08.324Z,94277.16
2022-08-26T12:05:43.572Z,94279.25
2022-08-26T12:08:17.653Z,94279.69
2022-08-26T12:10:44.837Z,94279.19
2022-08-26T12:13:26.413Z,94279.03
2022-08-26T12:15:57.162Z,94294.72
2022-08-26T12:18:31.620Z,94298.63
2022-08-26T12:21:01.952Z,94296.88
2022-08-26T12:23:41.058Z,94301.44
2022-08-26T12:26:30.949Z,94290.22
2022-08-26T12:29:10.770Z,94292.28
2022-08-26T12:31:48.113Z,94293.88
2022-08-26T12:34:18.237Z,94291.97
2022-08-26T12:39:36.612Z,94286.03
2022-08-26T12:42:40.775Z,94279.91
2022-08-26T12:45:08.640Z,94285.38
2022-08-26T12:47:43.071Z,94278.69
2022-08-26T12:50:19.333Z,94276.13
2022-08-26T12:53:01.342Z,94280.59
2022-08-26T12:55:43.025Z,94278.25
2022-08-26T12:58:39.151Z,94274.69
2022-08-26T13:01:08.905Z,94273.06
2022-08-26T13:03:38.769Z,94271.09
2022-08-26T13:06:35.048Z,94268.47
2022-08-26T13:09:24.962Z,94261.59
2022-08-26T13:11:54.385Z,94268.25
2022-08-26T13:14:24.695Z,94262.72
2022-08-26T13:16:52.852Z,94255.63
2022-08-26T13:19:25.525Z,94258.97
2022-08-26T13:21:58.100Z,94257.75
2022-08-26T13:24:44.479Z,94257.28
2022-08-26T13:27:14.461Z,94254.03
2022-08-26T13:29:41.798Z,94251.34
2022-08-26T13:32:09.673Z,94244.25
2022-08-26T13:34:38.374Z,94254.56
2022-08-26T13:37:05.781Z,94245.13
2022-08-26T13:39:33.215Z,94238.28
2022-08-26T13:42:00.319Z,94240.69
2022-08-26T13:44:27.513Z,94236.91
2022-08-26T13:46:54.713Z,94242.09
2022-08-26T13:49:22.292Z,94240.22
2022-08-26T13:51:49.134Z,94235.34
2022-08-26T13:54:15.976Z,94232.88
2022-08-26T13:56:42.954Z,94227.16
2022-08-26T13:59:10.748Z,94235.59
2022-08-26T14:01:40.190Z,94231.97
2022-08-26T14:04:08.469Z,94235.09
2022-08-26T14:06:35.381Z,94224.59
2022-08-26T14:09:02.191Z,94225.25
2022-08-26T14:11:30.343Z,94219.63
2022-08-26T14:14:06.213Z,94223.22
2022-08-26T14:16:38.475Z,94226.38
2022-08-26T14:19:25.273Z,94222.28
2022-08-26T14:21:52.030Z,94193.94
2022-08-26T14:24:19.180Z,94212.66
2022-08-26T14:26:48.617Z,94205.72
2022-08-26T14:29:16.859Z,94214.56
2022-08-26T14:31:44.269Z,94203.72
2022-08-26T14:34:13.929Z,94211.13
2022-08-26T14:36:40.719Z,94218.59
2022-08-26T14:39:12.798Z,94202.63
2022-08-26T14:41:54.679Z,94206.38
2022-08-26T14:44:25.025Z,94204.22
2022-08-26T14:46:53.083Z,94209.88
2022-08-26T14:49:22.611Z,94206.75
2022-08-26T14:51:49.873Z,94208.34
2022-08-26T14:54:18.186Z,94200.66
2022-08-26T14:56:46.472Z,94201.50
2022-08-26T14:59:17.734Z,94199.38
2022-08-26T15:01:45.512Z,94206.25
2022-08-26T15:04:12.836Z,94194.53
2022-08-26T15:06:40.170Z,94219.06
2022-08-26T15:09:07.479Z,94216.16
2022-08-26T15:11:34.743Z,94214.72
2022-08-26T15:14:01.644Z,94208.78
2022-08-26T15:16:29.308Z,94206.88
2022-08-26T15:18:57.005Z,94203.16
2022-08-26T15:21:24.709Z,94202.19
2022-08-26T15:23:53.346Z,94202.19
2022-08-26T15:26:21.798Z,94206.41
2022-08-26T15:28:49.240Z,94201.84
2022-08-26T15:31:17.547Z,94199.69
2022-08-26T15:33:44.714Z,94193.56
2022-08-26T15:36:12.008Z,94194.72
2022-08-26T15:38:42.447Z,94201.84
2022-08-26T15:41:10.549Z,94201.19
2022-08-26T15:43:38.400Z,94207.50
2022-08-26T15:46:11.434Z,94204.41
2022-08-26T15:48:39.480Z,94201.19
2022-08-26T15:51:08.434Z,94203.91
2022-08-26T15:53:35.566Z,94212.00
2022-08-26T15:56:02.702Z,94215.50
2022-08-26T15:58:30.117Z,94207.22
2022-08-26T16:00:57.550Z,94192.00
2022-08-26T16:03:25.697Z,94206.56
2022-08-26T16:05:52.638Z,94206.56
2022-08-26T16:08:20.282Z,94190.78
2022-08-26T16:10:50.594Z,94203.47
2022-08-26T16:13:20.205Z,94185.47
2022-08-26T16:15:48.395Z,94192.44
2022-08-26T16:18:16.241Z,94198.13
2022-08-26T16:21:05.021Z,94187.78
2022-08-26T16:23:40.116Z,94189.97
2022-08-26T16:26:12.922Z,94195.50
2022-08-26T16:28:40.084Z,94191.56
2022-08-26T16:31:07.546Z,94201.34
2022-08-26T16:33:34.407Z,94200.53
2022-08-26T16:36:01.213Z,94205.66
2022-08-26T16:38:28.117Z,94206.94
2022-08-26T16:40:54.871Z,94202.63
2022-08-26T16:43:24.488Z,94216.19
2022-08-26T16:45:51.335Z,94212.25
2022-08-26T16:48:18.237Z,94206.84
2022-08-26T16:50:45.146Z,94214.50
2022-08-26T16:55:59.417Z,94206.34
2022-08-26T16:58:26.169Z,94233.78
2022-08-26T17:00:52.962Z,94229.81
2022-08-26T17:03:19.815Z,94235.06
2022-08-26T17:05:46.635Z,94249.94
2022-08-26T17:08:28.320Z,94248.66
2022-08-26T17:10:56.328Z,94245.44
2022-08-26T17:13:34.772Z,94253.00
2022-08-26T17:16:05.070Z,94254.63
2022-08-26T17:18:33.493Z,94259.50
2022-08-26T17:21:04.638Z,94254.72
2022-08-26T17:23:31.497Z,94248.22
2022-08-26T17:25:58.314Z,94241.78
2022-08-26T17:28:25.108Z,94247.44
2022-08-26T17:30:51.945Z,94241.25
2022-08-26T17:33:22.077Z,94241.81
2022-08-26T17:35:51.696Z,94248.78
2022-08-26T17:38:18.568Z,94264.13
2022-08-26T17:40:45.396Z,94259.00
2022-08-26T17:43:12.642Z,94262.78
2022-08-26T17:45:40.440Z,94261.72
2022-08-26T17:48:08.153Z,94263.81
2022-08-26T17:50:35.406Z,94266.81
2022-08-26T17:53:02.336Z,94264.09
2022-08-26T17:55:29.252Z,94275.94
2022-08-26T17:57:56.064Z,94280.25
2022-08-26T18:00:28.460Z,94277.78
2022-08-26T18:02:56.212Z,94277.50
2022-08-26T18:05:23.648Z,94286.38
2022-08-26T18:07:51.520Z,94290.13
2022-08-26T18:10:20.553Z,94293.31
2022-08-26T18:12:47.486Z,94295.72
2022-08-26T18:15:18.515Z,94300.53
2022-08-26T18:17:46.030Z,94313.97
2022-08-26T18:20:18.843Z,94311.53
2022-08-26T18:22:47.643Z,94306.63
2022-08-26T18:25:16.669Z,94321.13
2022-08-26T18:27:43.801Z,94312.19
2022-08-26T18:30:16.981Z,94322.09
2022-08-26T18:32:44.598Z,94316.53
2022-08-26T18:35:12.005Z,94310.63
2022-08-26T18:37:39.228Z,94297.97
2022-08-26T18:40:10.008Z,94308.47
2022-08-26T18:42:37.619Z,94301.41
2022-08-26T18:45:07.699Z,94315.66
2022-08-26T18:47:36.047Z,94293.66
2022-08-26T18:50:04.622Z,94295.22
2022-08-26T18:52:33.255Z,94310.28
2022-08-26T18:55:03.355Z,94306.44
2022-08-26T18:57:30.365Z,94316.59
2022-08-26T18:59:57.931Z,94321.53
2022-08-26T19:02:28.694Z,94333.03
2022-08-26T19:04:58.167Z,94332.66
2022-08-26T19:07:25.899Z,94336.91
2022-08-26T19:09:58.755Z,94329.41
2022-08-26T19:12:27.859Z,94321.50
2022-08-26T19:14:54.700Z,94315.03
2022-08-26T19:17:22.691Z,94313.84
2022-08-26T19:19:49.978Z,94306.03
2022-08-26T19:22:16.827Z,94318.09
2022-08-26T19:24:44.314Z,94324.97
2022-08-26T19:27:14.773Z,94341.59
2022-08-26T19:29:42.896Z,94342.66
2022-08-26T19:32:09.821Z,94333.41
2022-08-26T19:34:36.704Z,94352.09
2022-08-26T19:37:03.557Z,94333.81
2022-08-26T19:39:30.942Z,94350.41
2022-08-26T19:41:57.845Z,94351.22
2022-08-26T19:44:44.133Z,94356.28
2022-08-26T19:47:15.268Z,94344.19
2022-08-26T19:49:42.217Z,94333.47
2022-08-26T19:52:11.047Z,94343.56
2022-08-26T19:54:38.789Z,94347.38
2022-08-26T19:57:06.009Z,94342.06
2022-08-26T19:59:33.218Z,94334.56
2022-08-26T20:02:01.109Z,94347.38
2022-08-26T20:04:30.105Z,94339.78
2022-08-26T20:06:58.841Z,94336.34
2022-08-26T20:09:32.716Z,94335.88
2022-08-26T20:12:00.950Z,94344.50
2022-08-26T20:14:29.919Z,94334.44
2022-08-26T20:16:57.019Z,94328.25
2022-08-26T20:19:42.624Z,94328.91
2022-08-26T20:22:09.944Z,94330.13
2022-08-26T20:24:37.406Z,94330.69
2022-08-26T20:27:07.799Z,94328.41
2022-08-26T20:29:35.833Z,94338.06
2022-08-26T20:32:03.703Z,94347.72
2022-08-26T20:34:30.586Z,94365.88
2022-08-26T20:36:57.581Z,94358.72
2022-08-26T20:39:24.365Z,94356.31
2022-08-26T20:41:51.454Z,94365.88
2022-08-26T20:44:27.606Z,94361.81
2022-08-26T20:46:55.330Z,94361.72
2022-08-26T20:49:22.783Z,94360.34
2022-08-26T20:51:53.118Z,94360.84
2022-08-26T20:54:25.123Z,94355.97
2022-08-26T20:56:57.537Z,94355.31
2022-08-26T20:59:25.177Z,94354.50
2022-08-26T21:01:52.594Z,94349.97
2022-08-26T21:04:23.645Z,94353.22
2022-08-26T21:06:52.790Z,94347.69
2022-08-26T21:09:22.632Z,94348.19
2022-08-26T21:11:50.737Z,94368.28
2022-08-26T21:14:20.607Z,94357.25
2022-08-26T21:16:47.894Z,94377.69
2022-08-26T21:19:18.181Z,94374.44
2022-08-26T21:21:47.441Z,94365.50
2022-08-26T21:24:14.942Z,94370.38
2022-08-26T21:26:42.024Z,94384.31
2022-08-26T21:29:10.030Z,94384.22
2022-08-26T21:31:42.274Z,94404.25
2022-08-26T21:34:11.981Z,94406.25
2022-08-26T21:36:38.762Z,94411.00
2022-08-26T21:39:10.737Z,94420.91
2022-08-26T21:41:39.257Z,94421.47
2022-08-26T21:44:06.126Z,94413.22
2022-08-26T21:46:36.408Z,94417.97
2022-08-26T21:49:07.530Z,94423.38
2022-08-26T21:51:48.316Z,94427.66
2022-08-26T21:54:15.482Z,94424.75
2022-08-26T21:56:46.782Z,94433.84
2022-08-26T21:59:18.643Z,94433.66
2022-08-26T22:01:46.161Z,94442.44
2022-08-26T22:04:13.337Z,94443.97
2022-08-26T22:06:48.221Z,94440.16
2022-08-26T22:09:20.749Z,94437.72
2022-08-26T22:11:47.854Z,94434.81
2022-08-26T22:14:16.423Z,94441.88
2022-08-26T22:16:50.120Z,94441.88
2022-08-26T22:19:18.102Z,94450.00
2022-08-26T22:21:45.366Z,94442.34
2022-08-26T22:24:12.562Z,94444.22
2022-08-26T22:26:40.471Z,94433.78
2022-08-26T22:29:07.746Z,94434.69
2022-08-26T22:31:37.121Z,94449.00
2022-08-26T22:34:13.114Z,94454.91
2022-08-26T22:36:44.375Z,94453.41
2022-08-26T22:39:15.226Z,94453.06
2022-08-26T22:41:44.195Z,94452.00
2022-08-26T22:44:12.192Z,94457.59
2022-08-26T22:46:40.725Z,94466.91
2022-08-26T22:49:11.039Z,94464.44
2022-08-26T22:51:38.064Z,94459.81
2022-08-26T22:54:05.932Z,94463.28
2022-08-26T22:56:32.912Z,94462.38
2022-08-26T22:58:59.721Z,94464.00
2022-08-26T23:01:26.842Z,94458.09
2022-08-26T23:03:53.689Z,94462.50
2022-08-26T23:06:20.557Z,94460.88
2022-08-26T23:08:47.563Z,94457.38
2022-08-26T23:11:15.061Z,94455.28
2022-08-26T23:13:42.686Z,94458.69
2022-08-26T23:16:12.319Z,94461.94
2022-08-26T23:18:41.088Z,94457.38
2022-08-26T23:21:08.983Z,94451.34
2022-08-26T23:23:36.421Z,94447.06
2022-08-26T23:26:06.112Z,94452.06
2022-08-26T23:28:33.784Z,94443.69
2022-08-26T23:31:00.692Z,94435.56
2022-08-26T23:33:47.482Z,94445.31
2022-08-26T23:36:18.190Z,94438.81
2022-08-26T23:38:52.844Z,94440.44
2022-08-26T23:41:22.228Z,94437.66
2022-08-26T23:43:50.337Z,94444.41
2022-08-26T23:46:18.076Z,94435.56
2022-08-26T23:48:44.966Z,94430.47
2022-08-26T23:51:30.914Z,94435.56
2022-08-26T23:53:58.077Z,94439.28
2022-08-26T23:56:25.441Z,94433.34
2022-08-26T23:58:53.985Z,94426.28
